sensor_id;sensor_type;location;lat;lon;timestamp;pressure;altitude;pressure_sealevel;temperature;humidity
20009;BME280;10165;42.662;23.260;2023-04-08T00:01:38;94180.09;;;8.31;53.69
20009;BME280;10165;42.662;23.260;2023-04-08T00:04:05;94165.50;;;8.49;53.27
20009;BME280;10165;42.662;23.260;2023-04-08T00:06:35;94171.13;;;8.15;53.34
20009;BME280;10165;42.662;23.260;2023-04-08T00:09:02;94171.53;;;8.05;54.54
20009;BME280;10165;42.662;23.260;2023-04-08T00:11:29;94170.22;;;8.11;53.73
20009;BME280;10165;42.662;23.260;2023-04-08T00:13:56;94163.03;;;8.44;53.46
20009;BME280;10165;42.662;23.260;2023-04-08T00:16:23;94174.22;;;8.38;53.16
20009;BME280;10165;42.662;23.260;2023-04-08T00:18:49;94168.38;;;8.44;53.14
20009;BME280;10165;42.662;23.260;2023-04-08T00:21:17;94164.25;;;8.35;52.82
20009;BME280;10165;42.662;23.260;2023-04-08T00:23:46;94167.97;;;8.54;52.75
20009;BME280;10165;42.662;23.260;2023-04-08T00:26:13;94165.22;;;8.75;52.41
20009;BME280;10165;42.662;23.260;2023-04-08T00:28:40;94161.78;;;8.75;52.25
20009;BME280;10165;42.662;23.260;2023-04-08T00:31:06;94164.56;;;8.66;52.46
20009;BME280;10165;42.662;23.260;2023-04-08T00:33:33;94163.00;;;8.65;52.33
20009;BME280;10165;42.662;23.260;2023-04-08T00:36:00;94158.84;;;8.55;52.62
20009;BME280;10165;42.662;23.260;2023-04-08T00:38:26;94165.19;;;8.63;53.14
20009;BME280;10165;42.662;23.260;2023-04-08T00:40:53;94166.44;;;8.66;53.37
20009;BME280;10165;42.662;23.260;2023-04-08T00:43:20;94169.19;;;8.57;52.63
20009;BME280;10165;42.662;23.260;2023-04-08T00:45:47;94166.31;;;8.62;52.83
20009;BME280;10165;42.662;23.260;2023-04-08T00:48:13;94165.13;;;8.84;52.92
20009;BME280;10165;42.662;23.260;2023-04-08T00:50:42;94158.56;;;8.93;52.38
20009;BME280;10165;42.662;23.260;2023-04-08T00:53:09;94158.94;;;9.04;52.25
20009;BME280;10165;42.662;23.260;2023-04-08T00:55:35;94161.91;;;8.33;53.34
20009;BME280;10165;42.662;23.260;2023-04-08T00:58:02;94170.47;;;8.39;54.03
20009;BME280;10165;42.662;23.260;2023-04-08T01:00:29;94165.78;;;8.36;54.02
20009;BME280;10165;42.662;23.260;2023-04-08T01:03:28;94171.44;;;8.13;55.05
20009;BME280;10165;42.662;23.260;2023-04-08T01:06:14;94170.81;;;7.96;55.30
20009;BME280;10165;42.662;23.260;2023-04-08T01:08:44;94170.16;;;8.20;55.35
20009;BME280;10165;42.662;23.260;2023-04-08T01:11:12;94171.66;;;8.08;55.41
20009;BME280;10165;42.662;23.260;2023-04-08T01:13:41;94179.84;;;8.03;55.22
20009;BME280;10165;42.662;23.260;2023-04-08T01:16:11;94182.81;;;8.23;55.52
20009;BME280;10165;42.662;23.260;2023-04-08T01:18:40;94174.13;;;8.34;55.20
20009;BME280;10165;42.662;23.260;2023-04-08T01:21:10;94184.75;;;8.34;54.75
20009;BME280;10165;42.662;23.260;2023-04-08T01:23:45;94176.50;;;8.27;54.79
20009;BME280;10165;42.662;23.260;2023-04-08T01:26:21;94176.44;;;8.36;54.58
20009;BME280;10165;42.662;23.260;2023-04-08T01:28:50;94176.81;;;8.26;55.46
20009;BME280;10165;42.662;23.260;2023-04-08T01:31:19;94179.13;;;8.15;55.92
20009;BME280;10165;42.662;23.260;2023-04-08T01:33:48;94178.75;;;8.04;56.72
20009;BME280;10165;42.662;23.260;2023-04-08T01:36:16;94175.97;;;7.80;56.75
20009;BME280;10165;42.662;23.260;2023-04-08T01:38:46;94181.34;;;7.92;56.75
20009;BME280;10165;42.662;23.260;2023-04-08T01:41:15;94182.16;;;8.05;56.67
20009;BME280;10165;42.662;23.260;2023-04-08T01:43:43;94169.97;;;8.04;56.48
20009;BME280;10165;42.662;23.260;2023-04-08T01:46:11;94176.84;;;8.05;56.59
20009;BME280;10165;42.662;23.260;2023-04-08T01:48:39;94179.41;;;7.81;57.28
20009;BME280;10165;42.662;23.260;2023-04-08T01:51:06;94182.59;;;7.74;57.60
20009;BME280;10165;42.662;23.260;2023-04-08T01:53:34;94182.94;;;7.64;57.98
20009;BME280;10165;42.662;23.260;2023-04-08T01:56:05;94185.03;;;7.58;57.80
20009;BME280;10165;42.662;23.260;2023-04-08T01:58:38;94186.81;;;7.46;58.22
20009;BME280;10165;42.662;23.260;2023-04-08T02:01:10;94186.69;;;7.63;57.73
20009;BME280;10165;42.662;23.260;2023-04-08T02:03:41;94197.88;;;7.77;57.68
20009;BME280;10165;42.662;23.260;2023-04-08T02:06:08;94196.97;;;7.73;57.85
20009;BME280;10165;42.662;23.260;2023-04-08T02:08:35;94201.19;;;7.74;58.07
20009;BME280;10165;42.662;23.260;2023-04-08T02:11:02;94207.59;;;7.73;57.54
20009;BME280;10165;42.662;23.260;2023-04-08T02:13:30;94208.31;;;7.82;57.38
20009;BME280;10165;42.662;23.260;2023-04-08T02:18:55;94211.06;;;7.44;57.48
20009;BME280;10165;42.662;23.260;2023-04-08T02:21:28;94210.47;;;7.39;57.46
20009;BME280;10165;42.662;23.260;2023-04-08T02:23:58;94212.38;;;7.59;58.29
20009;BME280;10165;42.662;23.260;2023-04-08T02:26:32;94209.78;;;7.71;57.90
20009;BME280;10165;42.662;23.260;2023-04-08T02:29:00;94206.38;;;8.12;56.74
20009;BME280;10165;42.662;23.260;2023-04-08T02:31:28;94198.91;;;7.85;56.50
20009;BME280;10165;42.662;23.260;2023-04-08T02:33:56;94210.06;;;7.78;57.50
20009;BME280;10165;42.662;23.260;2023-04-08T02:36:24;94207.53;;;8.02;57.18
20009;BME280;10165;42.662;23.260;2023-04-08T02:38:52;94201.91;;;8.04;57.06
20009;BME280;10165;42.662;23.260;2023-04-08T02:41:18;94206.63;;;7.98;56.87
20009;BME280;10165;42.662;23.260;2023-04-08T02:43:45;94201.69;;;8.09;56.52
20009;BME280;10165;42.662;23.260;2023-04-08T02:46:13;94192.94;;;8.08;56.03
20009;BME280;10165;42.662;23.260;2023-04-08T02:48:40;94206.06;;;7.93;56.09
20009;BME280;10165;42.662;23.260;2023-04-08T02:51:06;94207.72;;;7.97;56.53
20009;BME280;10165;42.662;23.260;2023-04-08T02:53:33;94203.78;;;8.03;56.52
20009;BME280;10165;42.662;23.260;2023-04-08T02:56:00;94201.13;;;8.03;55.92
20009;BME280;10165;42.662;23.260;2023-04-08T02:58:27;94201.22;;;7.86;56.39
20009;BME280;10165;42.662;23.260;2023-04-08T03:00:53;94205.03;;;7.85;56.73
20009;BME280;10165;42.662;23.260;2023-04-08T03:03:21;94204.59;;;7.75;57.24
20009;BME280;10165;42.662;23.260;2023-04-08T03:05:55;94206.31;;;8.00;57.21
20009;BME280;10165;42.662;23.260;2023-04-08T03:08:23;94205.00;;;8.06;56.65
20009;BME280;10165;42.662;23.260;2023-04-08T03:10:50;94199.38;;;7.66;56.91
20009;BME280;10165;42.662;23.260;2023-04-08T03:13:17;94201.63;;;7.76;57.22
20009;BME280;10165;42.662;23.260;2023-04-08T03:15:43;94200.28;;;8.11;56.33
20009;BME280;10165;42.662;23.260;2023-04-08T03:18:10;94195.13;;;8.06;56.07
20009;BME280;10165;42.662;23.260;2023-04-08T03:20:37;94209.22;;;8.07;57.04
20009;BME280;10165;42.662;23.260;2023-04-08T03:23:03;94199.03;;;7.88;56.37
20009;BME280;10165;42.662;23.260;2023-04-08T03:25:30;94202.97;;;7.82;56.86
20009;BME280;10165;42.662;23.260;2023-04-08T03:27:57;94199.31;;;7.95;56.66
20009;BME280;10165;42.662;23.260;2023-04-08T03:30:24;94206.75;;;8.02;56.29
20009;BME280;10165;42.662;23.260;2023-04-08T03:32:51;94207.53;;;8.23;56.11
20009;BME280;10165;42.662;23.260;2023-04-08T03:35:18;94204.28;;;8.38;55.63
20009;BME280;10165;42.662;23.260;2023-04-08T03:37:45;94201.03;;;8.33;55.40
20009;BME280;10165;42.662;23.260;2023-04-08T03:40:12;94206.56;;;8.28;54.99
20009;BME280;10165;42.662;23.260;2023-04-08T03:42:39;94208.19;;;8.20;55.26
20009;BME280;10165;42.662;23.260;2023-04-08T03:45:06;94208.75;;;8.26;55.09
20009;BME280;10165;42.662;23.260;2023-04-08T03:47:33;94205.66;;;8.24;55.39
20009;BME280;10165;42.662;23.260;2023-04-08T03:50:00;94203.63;;;8.21;55.42
20009;BME280;10165;42.662;23.260;2023-04-08T03:52:27;94205.00;;;8.27;55.54
20009;BME280;10165;42.662;23.260;2023-04-08T03:54:54;94207.97;;;8.25;55.66
20009;BME280;10165;42.662;23.260;2023-04-08T03:57:20;94206.03;;;8.13;55.99
20009;BME280;10165;42.662;23.260;2023-04-08T03:59:47;94199.41;;;8.40;55.95
20009;BME280;10165;42.662;23.260;2023-04-08T04:02:14;94203.03;;;8.36;55.37
20009;BME280;10165;42.662;23.260;2023-04-08T04:04:41;94210.84;;;8.20;55.73
20009;BME280;10165;42.662;23.260;2023-04-08T04:07:07;94210.59;;;7.92;55.65
20009;BME280;10165;42.662;23.260;2023-04-08T04:09:34;94205.34;;;8.04;55.97
20009;BME280;10165;42.662;23.260;2023-04-08T04:12:01;94204.88;;;8.02;56.44
20009;BME280;10165;42.662;23.260;2023-04-08T04:14:27;94203.84;;;8.15;55.69
20009;BME280;10165;42.662;23.260;2023-04-08T04:16:54;94207.78;;;8.09;56.09
20009;BME280;10165;42.662;23.260;2023-04-08T04:19:21;94199.19;;;8.12;55.92
20009;BME280;10165;42.662;23.260;2023-04-08T04:21:47;94208.59;;;7.89;56.74
20009;BME280;10165;42.662;23.260;2023-04-08T04:24:14;94205.66;;;8.24;56.87
20009;BME280;10165;42.662;23.260;2023-04-08T04:26:41;94213.69;;;7.94;56.47
20009;BME280;10165;42.662;23.260;2023-04-08T04:29:07;94216.28;;;7.82;57.10
20009;BME280;10165;42.662;23.260;2023-04-08T04:31:34;94219.63;;;7.50;58.16
20009;BME280;10165;42.662;23.260;2023-04-08T04:34:01;94223.94;;;7.34;58.55
20009;BME280;10165;42.662;23.260;2023-04-08T04:36:27;94220.91;;;7.44;58.80
20009;BME280;10165;42.662;23.260;2023-04-08T04:38:54;94225.28;;;7.40;59.03
20009;BME280;10165;42.662;23.260;2023-04-08T04:41:22;94221.53;;;7.41;59.09
20009;BME280;10165;42.662;23.260;2023-04-08T04:43:48;94216.63;;;7.51;58.95
20009;BME280;10165;42.662;23.260;2023-04-08T04:46:15;94228.03;;;7.31;59.63
20009;BME280;10165;42.662;23.260;2023-04-08T04:48:42;94214.06;;;7.63;58.89
20009;BME280;10165;42.662;23.260;2023-04-08T04:51:09;94224.38;;;7.65;58.96
20009;BME280;10165;42.662;23.260;2023-04-08T04:53:36;94225.94;;;7.87;58.27
20009;BME280;10165;42.662;23.260;2023-04-08T04:56:02;94227.19;;;7.68;58.18
20009;BME280;10165;42.662;23.260;2023-04-08T04:58:29;94223.75;;;7.89;58.42
20009;BME280;10165;42.662;23.260;2023-04-08T05:00:57;94227.91;;;7.98;57.88
20009;BME280;10165;42.662;23.260;2023-04-08T05:03:23;94226.34;;;7.77;58.36
20009;BME280;10165;42.662;23.260;2023-04-08T05:05:51;94229.84;;;8.10;57.55
20009;BME280;10165;42.662;23.260;2023-04-08T05:08:19;94229.66;;;8.15;56.82
20009;BME280;10165;42.662;23.260;2023-04-08T05:10:46;94236.13;;;8.05;56.93
20009;BME280;10165;42.662;23.260;2023-04-08T05:13:12;94234.97;;;7.94;57.48
20009;BME280;10165;42.662;23.260;2023-04-08T05:15:39;94236.63;;;7.78;57.70
20009;BME280;10165;42.662;23.260;2023-04-08T05:18:06;94232.34;;;7.65;57.84
20009;BME280;10165;42.662;23.260;2023-04-08T05:20:32;94237.94;;;7.72;58.14
20009;BME280;10165;42.662;23.260;2023-04-08T05:22:59;94231.78;;;7.80;57.49
20009;BME280;10165;42.662;23.260;2023-04-08T05:25:26;94228.22;;;8.17;56.71
20009;BME280;10165;42.662;23.260;2023-04-08T05:27:52;94227.72;;;8.03;56.56
20009;BME280;10165;42.662;23.260;2023-04-08T05:30:20;94225.66;;;8.30;55.95
20009;BME280;10165;42.662;23.260;2023-04-08T05:32:46;94226.09;;;8.11;56.66
20009;BME280;10165;42.662;23.260;2023-04-08T05:35:13;94232.25;;;8.03;56.60
20009;BME280;10165;42.662;23.260;2023-04-08T05:37:40;94231.22;;;7.95;56.74
20009;BME280;10165;42.662;23.260;2023-04-08T05:40:07;94229.97;;;8.13;57.16
20009;BME280;10165;42.662;23.260;2023-04-08T05:42:34;94233.28;;;8.10;56.26
20009;BME280;10165;42.662;23.260;2023-04-08T05:45:01;94229.00;;;8.18;56.13
20009;BME280;10165;42.662;23.260;2023-04-08T05:47:27;94222.34;;;8.12;56.64
20009;BME280;10165;42.662;23.260;2023-04-08T05:49:54;94226.81;;;8.20;56.49
20009;BME280;10165;42.662;23.260;2023-04-08T05:52:21;94233.41;;;8.14;56.72
20009;BME280;10165;42.662;23.260;2023-04-08T05:54:47;94231.34;;;8.20;56.30
20009;BME280;10165;42.662;23.260;2023-04-08T05:57:14;94228.66;;;7.57;57.33
20009;BME280;10165;42.662;23.260;2023-04-08T05:59:42;94229.34;;;8.37;56.61
20009;BME280;10165;42.662;23.260;2023-04-08T06:02:08;94223.88;;;8.54;55.89
20009;BME280;10165;42.662;23.260;2023-04-08T06:04:35;94217.84;;;8.45;55.59
20009;BME280;10165;42.662;23.260;2023-04-08T06:07:02;94226.75;;;7.29;58.33
20009;BME280;10165;42.662;23.260;2023-04-08T06:09:34;94226.59;;;7.84;57.53
20009;BME280;10165;42.662;23.260;2023-04-08T06:12:01;94217.19;;;8.28;56.35
20009;BME280;10165;42.662;23.260;2023-04-08T06:14:28;94216.56;;;8.31;56.18
20009;BME280;10165;42.662;23.260;2023-04-08T06:16:54;94221.22;;;8.34;56.46
20009;BME280;10165;42.662;23.260;2023-04-08T06:19:23;94223.31;;;8.07;56.68
20009;BME280;10165;42.662;23.260;2023-04-08T06:21:50;94223.34;;;7.78;57.26
20009;BME280;10165;42.662;23.260;2023-04-08T06:24:16;94218.75;;;8.29;56.63
20009;BME280;10165;42.662;23.260;2023-04-08T06:26:43;94221.91;;;8.76;55.53
20009;BME280;10165;42.662;23.260;2023-04-08T06:29:10;94223.59;;;8.80;54.79
20009;BME280;10165;42.662;23.260;2023-04-08T06:31:36;94226.34;;;8.72;54.27
20009;BME280;10165;42.662;23.260;2023-04-08T06:34:03;94227.13;;;9.41;53.11
20009;BME280;10165;42.662;23.260;2023-04-08T06:36:30;94226.88;;;9.22;53.47
20009;BME280;10165;42.662;23.260;2023-04-08T06:38:57;94230.22;;;8.62;54.79
20009;BME280;10165;42.662;23.260;2023-04-08T06:41:23;94227.75;;;9.02;54.77
20009;BME280;10165;42.662;23.260;2023-04-08T06:43:50;94235.81;;;8.81;54.52
20009;BME280;10165;42.662;23.260;2023-04-08T06:46:17;94234.16;;;9.01;53.61
20009;BME280;10165;42.662;23.260;2023-04-08T06:48:43;94224.44;;;9.29;53.33
20009;BME280;10165;42.662;23.260;2023-04-08T06:51:10;94228.44;;;9.47;53.09
20009;BME280;10165;42.662;23.260;2023-04-08T06:53:36;94229.22;;;9.11;53.55
20009;BME280;10165;42.662;23.260;2023-04-08T06:56:03;94231.88;;;9.48;53.10
20009;BME280;10165;42.662;23.260;2023-04-08T06:58:30;94234.09;;;9.34;53.25
20009;BME280;10165;42.662;23.260;2023-04-08T07:00:58;94228.75;;;9.22;53.18
20009;BME280;10165;42.662;23.260;2023-04-08T07:03:25;94235.63;;;9.10;53.75
20009;BME280;10165;42.662;23.260;2023-04-08T07:05:52;94232.56;;;8.76;54.08
20009;BME280;10165;42.662;23.260;2023-04-08T07:08:19;94236.69;;;8.73;54.84
20009;BME280;10165;42.662;23.260;2023-04-08T07:10:45;94236.06;;;9.12;53.84
20009;BME280;10165;42.662;23.260;2023-04-08T07:13:12;94241.00;;;9.23;53.13
20009;BME280;10165;42.662;23.260;2023-04-08T07:15:40;94238.78;;;9.37;52.95
20009;BME280;10165;42.662;23.260;2023-04-08T07:18:06;94231.66;;;9.29;52.65
20009;BME280;10165;42.662;23.260;2023-04-08T07:20:33;94245.31;;;9.39;52.53
20009;BME280;10165;42.662;23.260;2023-04-08T07:23:03;94239.09;;;9.72;52.23
20009;BME280;10165;42.662;23.260;2023-04-08T07:25:32;94245.44;;;9.55;52.15
20009;BME280;10165;42.662;23.260;2023-04-08T07:28:00;94246.75;;;9.25;52.68
20009;BME280;10165;42.662;23.260;2023-04-08T07:30:27;94250.47;;;8.87;53.98
20009;BME280;10165;42.662;23.260;2023-04-08T07:32:54;94237.06;;;9.93;51.13
20009;BME280;10165;42.662;23.260;2023-04-08T07:35:23;94250.56;;;10.12;50.94
20009;BME280;10165;42.662;23.260;2023-04-08T07:37:50;94251.72;;;10.11;50.84
20009;BME280;10165;42.662;23.260;2023-04-08T07:40:18;94254.31;;;9.95;51.29
20009;BME280;10165;42.662;23.260;2023-04-08T07:42:45;94252.06;;;9.97;51.26
20009;BME280;10165;42.662;23.260;2023-04-08T07:45:12;94261.34;;;10.40;50.15
20009;BME280;10165;42.662;23.260;2023-04-08T07:47:38;94264.88;;;9.80;51.41
20009;BME280;10165;42.662;23.260;2023-04-08T07:50:06;94273.63;;;10.04;50.93
20009;BME280;10165;42.662;23.260;2023-04-08T07:52:33;94266.75;;;9.91;51.86
20009;BME280;10165;42.662;23.260;2023-04-08T07:55:00;94267.28;;;10.21;51.28
20009;BME280;10165;42.662;23.260;2023-04-08T07:57:27;94264.75;;;10.80;50.21
20009;BME280;10165;42.662;23.260;2023-04-08T07:59:54;94278.03;;;10.37;50.36
20009;BME280;10165;42.662;23.260;2023-04-08T08:02:21;94277.84;;;10.30;50.03
20009;BME280;10165;42.662;23.260;2023-04-08T08:04:48;94276.94;;;10.38;50.90
20009;BME280;10165;42.662;23.260;2023-04-08T08:07:15;94262.31;;;10.75;49.80
20009;BME280;10165;42.662;23.260;2023-04-08T08:09:42;94277.09;;;9.69;52.02
20009;BME280;10165;42.662;23.260;2023-04-08T08:12:08;94273.31;;;9.82;52.17
20009;BME280;10165;42.662;23.260;2023-04-08T08:14:35;94273.97;;;10.15;51.61
20009;BME280;10165;42.662;23.260;2023-04-08T08:17:02;94283.66;;;9.95;52.45
20009;BME280;10165;42.662;23.260;2023-04-08T08:19:29;94281.34;;;9.70;52.52
20009;BME280;10165;42.662;23.260;2023-04-08T08:21:56;94275.72;;;10.63;50.91
20009;BME280;10165;42.662;23.260;2023-04-08T08:24:23;94285.22;;;10.48;51.00
20009;BME280;10165;42.662;23.260;2023-04-08T08:26:49;94281.28;;;10.58;49.97
20009;BME280;10165;42.662;23.260;2023-04-08T08:29:16;94277.19;;;10.88;49.64
20009;BME280;10165;42.662;23.260;2023-04-08T08:31:43;94279.50;;;10.62;50.37
20009;BME280;10165;42.662;23.260;2023-04-08T08:34:09;94274.75;;;10.83;50.10
20009;BME280;10165;42.662;23.260;2023-04-08T08:36:36;94271.09;;;11.19;49.69
20009;BME280;10165;42.662;23.260;2023-04-08T08:39:03;94270.59;;;10.58;50.79
20009;BME280;10165;42.662;23.260;2023-04-08T08:41:33;94276.78;;;10.46;51.75
20009;BME280;10165;42.662;23.260;2023-04-08T08:44:06;94275.22;;;11.01;50.42
20009;BME280;10165;42.662;23.260;2023-04-08T08:46:34;94263.13;;;10.91;50.70
20009;BME280;10165;42.662;23.260;2023-04-08T08:49:01;94269.47;;;11.46;49.54
20009;BME280;10165;42.662;23.260;2023-04-08T08:51:28;94274.47;;;10.73;50.59
20009;BME280;10165;42.662;23.260;2023-04-08T08:53:55;94275.25;;;11.17;50.73
20009;BME280;10165;42.662;23.260;2023-04-08T08:56:22;94275.19;;;11.60;49.78
20009;BME280;10165;42.662;23.260;2023-04-08T08:58:48;94272.03;;;10.95;51.67
20009;BME280;10165;42.662;23.260;2023-04-08T09:01:35;94272.34;;;10.94;51.51
20009;BME280;10165;42.662;23.260;2023-04-08T09:04:11;94272.16;;;11.30;51.13
20009;BME280;10165;42.662;23.260;2023-04-08T09:06:38;94270.44;;;11.85;50.00
20009;BME280;10165;42.662;23.260;2023-04-08T09:09:06;94279.88;;;12.14;48.51
20009;BME280;10165;42.662;23.260;2023-04-08T09:11:37;94270.91;;;12.06;48.09
20009;BME280;10165;42.662;23.260;2023-04-08T09:14:21;94277.00;;;11.40;48.70
20009;BME280;10165;42.662;23.260;2023-04-08T09:16:49;94276.13;;;11.52;50.07
20009;BME280;10165;42.662;23.260;2023-04-08T09:19:16;94273.69;;;11.47;49.73
20009;BME280;10165;42.662;23.260;2023-04-08T09:21:42;94277.84;;;11.60;49.20
20009;BME280;10165;42.662;23.260;2023-04-08T09:24:27;94277.25;;;11.98;47.99
20009;BME280;10165;42.662;23.260;2023-04-08T09:26:54;94268.44;;;11.66;48.70
20009;BME280;10165;42.662;23.260;2023-04-08T09:29:25;94267.72;;;12.01;48.12
20009;BME280;10165;42.662;23.260;2023-04-08T09:31:58;94263.28;;;11.73;48.28
20009;BME280;10165;42.662;23.260;2023-04-08T09:34:26;94259.34;;;12.02;49.05
20009;BME280;10165;42.662;23.260;2023-04-08T09:36:54;94259.03;;;12.23;48.13
20009;BME280;10165;42.662;23.260;2023-04-08T09:39:21;94264.78;;;12.06;48.28
20009;BME280;10165;42.662;23.260;2023-04-08T09:41:49;94257.63;;;12.29;47.79
20009;BME280;10165;42.662;23.260;2023-04-08T09:44:18;94262.72;;;10.62;51.53
20009;BME280;10165;42.662;23.260;2023-04-08T09:49:30;94243.16;;;11.79;49.49
20009;BME280;10165;42.662;23.260;2023-04-08T09:52:10;94257.38;;;12.34;47.26
20009;BME280;10165;42.662;23.260;2023-04-08T09:54:53;94256.47;;;11.76;48.72
20009;BME280;10165;42.662;23.260;2023-04-08T09:57:51;94245.59;;;12.38;46.51
20009;BME280;10165;42.662;23.260;2023-04-08T10:00:33;94248.59;;;11.51;47.60
20009;BME280;10165;42.662;23.260;2023-04-08T10:03:09;94242.97;;;12.23;46.58
20009;BME280;10165;42.662;23.260;2023-04-08T10:05:37;94242.69;;;12.85;45.72
20009;BME280;10165;42.662;23.260;2023-04-08T10:08:06;94247.28;;;12.46;45.61
20009;BME280;10165;42.662;23.260;2023-04-08T10:10:34;94237.31;;;12.85;44.80
20009;BME280;10165;42.662;23.260;2023-04-08T10:13:03;94236.53;;;12.85;45.23
20009;BME280;10165;42.662;23.260;2023-04-08T10:15:31;94239.44;;;12.57;46.54
20009;BME280;10165;42.662;23.260;2023-04-08T10:23:05;94230.13;;;11.62;48.38
20009;BME280;10165;42.662;23.260;2023-04-08T10:25:36;94240.88;;;11.97;47.97
20009;BME280;10165;42.662;23.260;2023-04-08T10:30:42;94239.47;;;11.52;49.57
20009;BME280;10165;42.662;23.260;2023-04-08T10:33:12;94232.56;;;11.20;49.98
20009;BME280;10165;42.662;23.260;2023-04-08T10:35:53;94224.28;;;11.41;49.90
20009;BME280;10165;42.662;23.260;2023-04-08T10:38:20;94223.25;;;11.30;51.03
20009;BME280;10165;42.662;23.260;2023-04-08T10:40:48;94223.13;;;11.73;49.35
20009;BME280;10165;42.662;23.260;2023-04-08T10:43:15;94217.03;;;12.27;48.29
20009;BME280;10165;42.662;23.260;2023-04-08T10:45:42;94207.16;;;12.31;48.32
20009;BME280;10165;42.662;23.260;2023-04-08T10:48:16;94208.88;;;12.39;47.92
20009;BME280;10165;42.662;23.260;2023-04-08T10:51:02;94204.94;;;12.52;47.94
20009;BME280;10165;42.662;23.260;2023-04-08T10:53:34;94197.91;;;11.90;49.24
20009;BME280;10165;42.662;23.260;2023-04-08T10:56:08;94190.94;;;12.62;47.97
20009;BME280;10165;42.662;23.260;2023-04-08T10:58:49;94200.88;;;12.62;47.31
20009;BME280;10165;42.662;23.260;2023-04-08T11:01:16;94198.72;;;12.67;47.40
20009;BME280;10165;42.662;23.260;2023-04-08T11:03:44;94192.91;;;11.22;50.69
20009;BME280;10165;42.662;23.260;2023-04-08T11:06:10;94190.09;;;11.50;50.46
20009;BME280;10165;42.662;23.260;2023-04-08T11:08:37;94183.44;;;12.49;48.14
20009;BME280;10165;42.662;23.260;2023-04-08T11:11:05;94190.25;;;12.08;48.85
20009;BME280;10165;42.662;23.260;2023-04-08T11:13:38;94178.13;;;11.94;49.11
20009;BME280;10165;42.662;23.260;2023-04-08T11:16:13;94180.31;;;11.73;49.01
20009;BME280;10165;42.662;23.260;2023-04-08T11:18:44;94170.31;;;12.43;48.40
20009;BME280;10165;42.662;23.260;2023-04-08T11:21:11;94173.75;;;12.06;48.72
20009;BME280;10165;42.662;23.260;2023-04-08T11:23:38;94175.56;;;12.78;47.78
20009;BME280;10165;42.662;23.260;2023-04-08T11:26:05;94172.31;;;12.69;48.12
20009;BME280;10165;42.662;23.260;2023-04-08T11:28:32;94161.94;;;13.85;46.18
20009;BME280;10165;42.662;23.260;2023-04-08T11:31:01;94157.25;;;13.52;45.15
20009;BME280;10165;42.662;23.260;2023-04-08T11:33:30;94146.69;;;13.14;45.44
20009;BME280;10165;42.662;23.260;2023-04-08T11:36:00;94149.41;;;12.94;45.18
20009;BME280;10165;42.662;23.260;2023-04-08T11:38:29;94148.63;;;12.71;45.69
20009;BME280;10165;42.662;23.260;2023-04-08T11:40:57;94153.75;;;12.00;47.20
20009;BME280;10165;42.662;23.260;2023-04-08T11:43:25;94143.59;;;12.28;47.38
20009;BME280;10165;42.662;23.260;2023-04-08T11:45:51;94140.97;;;12.51;46.90
20009;BME280;10165;42.662;23.260;2023-04-08T11:48:18;94132.03;;;12.05;45.99
20009;BME280;10165;42.662;23.260;2023-04-08T11:50:45;94135.75;;;12.58;46.10
20009;BME280;10165;42.662;23.260;2023-04-08T11:53:24;94124.91;;;12.96;43.78
20009;BME280;10165;42.662;23.260;2023-04-08T11:55:51;94123.84;;;13.23;43.76
20009;BME280;10165;42.662;23.260;2023-04-08T11:58:18;94127.22;;;13.17;43.50
20009;BME280;10165;42.662;23.260;2023-04-08T12:00:44;94119.88;;;12.07;46.18
20009;BME280;10165;42.662;23.260;2023-04-08T12:03:11;94121.69;;;12.41;45.35
20009;BME280;10165;42.662;23.260;2023-04-08T12:05:39;94113.56;;;13.03;43.98
20009;BME280;10165;42.662;23.260;2023-04-08T12:08:06;94112.13;;;12.86;44.21
20009;BME280;10165;42.662;23.260;2023-04-08T12:10:32;94096.09;;;13.38;43.93
20009;BME280;10165;42.662;23.260;2023-04-08T12:12:59;94101.84;;;13.37;43.71
20009;BME280;10165;42.662;23.260;2023-04-08T12:15:26;94097.31;;;13.41;42.96
20009;BME280;10165;42.662;23.260;2023-04-08T12:17:52;94107.16;;;13.89;43.07
20009;BME280;10165;42.662;23.260;2023-04-08T12:20:19;94111.41;;;13.91;42.93
20009;BME280;10165;42.662;23.260;2023-04-08T12:22:46;94109.78;;;13.07;44.25
20009;BME280;10165;42.662;23.260;2023-04-08T12:25:12;94101.94;;;13.18;44.16
20009;BME280;10165;42.662;23.260;2023-04-08T12:27:39;94104.88;;;11.83;46.31
20009;BME280;10165;42.662;23.260;2023-04-08T12:30:06;94108.75;;;11.70;47.28
20009;BME280;10165;42.662;23.260;2023-04-08T12:32:33;94103.03;;;12.26;45.74
20009;BME280;10165;42.662;23.260;2023-04-08T12:35:00;94101.13;;;12.07;46.12
20009;BME280;10165;42.662;23.260;2023-04-08T12:37:27;94101.28;;;12.14;45.95
20009;BME280;10165;42.662;23.260;2023-04-08T12:39:54;94094.03;;;12.79;44.59
20009;BME280;10165;42.662;23.260;2023-04-08T12:42:20;94089.41;;;12.57;44.76
20009;BME280;10165;42.662;23.260;2023-04-08T12:44:47;94098.84;;;13.16;43.66
20009;BME280;10165;42.662;23.260;2023-04-08T12:47:14;94105.03;;;12.97;43.69
20009;BME280;10165;42.662;23.260;2023-04-08T12:49:41;94122.19;;;12.28;46.18
20009;BME280;10165;42.662;23.260;2023-04-08T12:52:15;94116.69;;;12.21;46.08
20009;BME280;10165;42.662;23.260;2023-04-08T12:54:43;94120.88;;;12.60;48.04
20009;BME280;10165;42.662;23.260;2023-04-08T12:57:09;94125.59;;;12.48;48.25
20009;BME280;10165;42.662;23.260;2023-04-08T12:59:36;94129.72;;;11.84;52.20
20009;BME280;10165;42.662;23.260;2023-04-08T13:02:05;94124.44;;;11.87;53.70
20009;BME280;10165;42.662;23.260;2023-04-08T13:04:33;94122.28;;;12.54;53.21
20009;BME280;10165;42.662;23.260;2023-04-08T13:07:00;94119.50;;;13.15;52.12
20009;BME280;10165;42.662;23.260;2023-04-08T13:09:27;94121.28;;;12.85;54.41
20009;BME280;10165;42.662;23.260;2023-04-08T13:11:56;94119.69;;;12.38;53.33
20009;BME280;10165;42.662;23.260;2023-04-08T13:14:24;94111.81;;;11.69;53.46